NCAR-RAP Real-Time Weather Data

Output produced by METARs form (23 February 2020  01:54 UTC)
found at http://weather.rap.ucar.edu/surface/
 
KORH 230054Z 28011KT 10SM CLR 01/M09 A3011 RMK AO2 SLP209 T00111094 $
KORH 222354Z 28009G17KT 10SM CLR 02/M09 A3010 RMK AO2 SLP208 T00171094 10050 20017 53016 $